• Join FlightAware (Why Join?)
  • Login
  • US Flag 
02:31AM EDT


 

Airport Tracker/Info


-or-


 

Live Flight TrackerFlight Track Log ✈ UAL481 ✈ 29-Dec-2013 ✈ KIAH - KPDX

Flight Track Log - Related Links

Times and Time Zones

All times are in EST time to prevent confusion due to time zone crossing. See the UAL481 flight status page for this flight to view local times or setup timezone preferences in your user account.

Time Position Orientation Groundspeed Altitude Reporting Facility
EST Latitude Longitude Course Direction KTS MPH feet Rate Location/Type
10:52PM 29.9511 -95.3425 248° West 183 211 1,100  Level Houston Center
10:53PM 29.9378 -95.3803 248° West 213 245 2,200 1,740 Climbing Houston Center
10:54PM 29.9642 -95.3939 336° Northwest 232 267 3,500 2,400 Climbing Houston Center
10:54PM 29.9864 -95.4058 335° Northwest 238 274 4,400 2,340 Climbing Houston Center
10:55PM 30.0253 -95.4222 340° North 234 269 5,900 2,700 Climbing Houston Center
10:56PM 30.0975 -95.4553 338° Northwest 272 313 8,900 2,700 Climbing Houston Center
10:57PM 30.1700 -95.4875 339° North 277 319 11,400 2,160 Climbing Houston Center
10:58PM 30.2553 -95.5267 338° Northwest 321 369 13,300 1,920 Climbing Houston Center
10:59PM 30.3492 -95.5672 340° North 349 402 15,400 2,160 Climbing Houston Center
11:00PM 30.4497 -95.6136 338° Northwest 379 436 17,700 2,700 Climbing Houston Center
11:01PM 30.5550 -95.6614 339° North 401 461 20,900 2,820 Climbing Houston Center
11:02PM 30.6775 -95.7272 335° Northwest 405 466 23,500 2,580 Climbing Houston Center
11:03PM 30.7747 -95.7786 336° Northwest 407 468 26,200 1,860 Climbing Houston Center
11:04PM 30.8758 -95.8347 335° Northwest 402 463 27,400 900 Climbing Houston Center
11:05PM 30.9842 -95.8939 335° Northwest 422 486 28,100 600 Climbing Houston Center
11:06PM 31.1011 -95.9569 335° Northwest 451 519 28,700 960 Climbing Houston Center
11:07PM 31.2294 -96.0106 340° North 477 549 30,100 1,320 Climbing Houston Center
11:08PM 31.3578 -96.0589 342° North 482 555 31,500 1,380 Climbing Houston Center
11:09PM 31.4853 -96.1078 342° North 480 552 33,000 1,380 Climbing Houston Center
11:10PM 31.6103 -96.1564 342° North 473 544 34,400 1,440 Climbing Houston Center
11:11PM 31.7294 -96.2008 342° North 455 524 35,900 780 Climbing Fort Worth Center
11:12PM 31.8619 -96.2525 342° North 447 514 36,000  Climbing Fort Worth Center
11:13PM 31.9789 -96.3008 341° North 446 513 36,000  Level Fort Worth Center
11:14PM 32.0981 -96.3481 341° North 450 518 36,000  Level Fort Worth Center
11:15PM 32.2097 -96.4075 336° Northwest 441 507 36,000  Level Fort Worth Center
11:16PM 32.2922 -96.4989 317° Northwest 408 470 36,000  Level Fort Worth Center
11:17PM 32.3728 -96.5903 316° Northwest 403 464 36,000  Level Fort Worth Center
11:18PM 32.4550 -96.6822 317° Northwest 405 466 36,000  Level Fort Worth Center
11:19PM 32.5353 -96.7742 316° Northwest 403 464 36,000  Level Fort Worth Center
11:20PM 32.6153 -96.8656 316° Northwest 401 461 36,000  Level Fort Worth Center
11:21PM 32.7119 -96.9758 316° Northwest 403 464 36,000  Level Fort Worth Center
11:22PM 32.7917 -97.0675 316° Northwest 401 461 36,000  Level Fort Worth Center
11:23PM 32.8692 -97.1561 316° Northwest 405 466 36,000  Level Fort Worth Center
11:24PM 32.9475 -97.2517 314° West 402 463 36,000  Level Fort Worth Center
11:25PM 33.0156 -97.3414 312° West 397 457 36,000  Level Fort Worth Center
11:26PM 33.0919 -97.4369 314° West 396 456 36,000  Level Fort Worth Center
11:27PM 33.1825 -97.5514 313° West 394 453 36,000  Level Fort Worth Center
11:28PM 33.2567 -97.6475 313° West 395 455 36,000  Level Fort Worth Center
11:29PM 33.3319 -97.7436 313° West 397 457 36,000  Level Fort Worth Center
11:30PM 33.4081 -97.8397 314° West 397 457 36,000  Level Fort Worth Center
11:31PM 33.4925 -97.9306 318° Northwest 407 468 36,000  Level Fort Worth Center
11:32PM 33.5933 -98.0081 327° Northwest 429 494 36,000  Level Fort Worth Center
11:33PM 33.6931 -98.0867 327° Northwest 429 494 36,000  Level Fort Worth Center
11:34PM 33.7928 -98.1667 326° Northwest 432 497 36,000  Level Fort Worth Center
11:35PM 33.8914 -98.2489 325° Northwest 431 496 36,000  Level Fort Worth Center
11:36PM 33.9911 -98.3286 326° Northwest 431 496 36,000  Level Fort Worth Center
11:37PM 34.0906 -98.4100 326° Northwest 432 497 36,000  Level Fort Worth Center
11:38PM 34.2064 -98.5047 326° Northwest 435 501 36,000  Level Fort Worth Center
11:39PM 34.2989 -98.5950 321° Northwest 428 493 36,000  Level Fort Worth Center
11:40PM 34.3731 -98.7019 310° West 415 478 36,000  Level Fort Worth Center
11:41PM 34.4472 -98.8097 310° West 413 475 36,000  Level Fort Worth Center
11:42PM 34.5206 -98.9181 309° West 414 476 36,000  Level Fort Worth Center
11:44PM 34.5936 -99.0272 309° West 413 475 36,000  Level Fort Worth Center
11:45PM 34.6681 -99.1394 309° West 421 484 36,000  Level Fort Worth Center
11:46PM 34.7431 -99.2500 310° West 421 484 36,000  Level Fort Worth Center
11:47PM 34.8167 -99.3608 309° West 420 483 36,000  Level Fort Worth Center
11:48PM 34.8919 -99.4711 310° West 420 483 36,000  Level Fort Worth Center
11:49PM 34.9656 -99.5819 309° West 418 481 36,000  Level Fort Worth Center
11:50PM 35.0400 -99.6936 309° West 419 482 36,000  Level Fort Worth Center
11:51PM 35.1133 -99.8031 309° West 416 479 36,000  Level Fort Worth Center
11:52PM 35.2006 -99.9364 309° West 416 479 36,000  Level Albuquerque Center
11:53PM 35.2725 -100.0467 309° West 415 478 36,000  Level Albuquerque Center
11:54PM 35.3458 -100.1561 309° West 413 475 36,000  Level Albuquerque Center
11:55PM 35.4181 -100.2678 308° West 414 476 36,000  Level Albuquerque Center
11:56PM 35.4906 -100.3808 308° West 416 479 36,000  Level Albuquerque Center
11:57PM 35.5639 -100.4931 309° West 417 480 36,000  Level Albuquerque Center
11:58PM 35.6331 -100.6044 307° West 414 476 36,000  Level Albuquerque Center
11:59PM 35.7092 -100.7206 309° West 419 482 36,000  Level Albuquerque Center
12:00AM 35.7814 -100.8344 308° West 421 484 36,000  Level Albuquerque Center
12:01AM 35.8669 -100.9667 309° West 421 484 36,000  Level Albuquerque Center
12:02AM 35.9383 -101.0783 308° West 419 482 36,000  Level Albuquerque Center
12:03AM 36.0092 -101.1892 308° West 417 480 36,000  Level Albuquerque Center
12:04AM 36.0803 -101.3022 308° West 417 480 36,000  Level Albuquerque Center
12:05AM 36.1511 -101.4164 308° West 420 483 36,000  Level Albuquerque Center
12:06AM 36.2228 -101.5289 308° West 419 482 36,000  Level Albuquerque Center
12:07AM 36.2942 -101.6425 308° West 420 483 36,000  Level Albuquerque Center
12:08AM 36.3653 -101.7572 308° West 421 484 36,000  Level Albuquerque Center
12:09AM 36.4358 -101.8694 308° West 417 480 36,000  Level Albuquerque Center
12:10AM 36.5200 -102.0050 308° West 416 479 36,000  Level Albuquerque Center
12:11AM 36.5889 -102.1172 307° West 412 474 36,000  Level Albuquerque Center
12:12AM 36.6572 -102.2283 307° West 407 468 36,000  Level Albuquerque Center
12:13AM 36.7256 -102.3394 308° West 406 467 36,000  Level Albuquerque Center
12:14AM 36.7931 -102.4508 307° West 405 466 36,000  Level Albuquerque Center
12:15AM 36.8647 -102.5692 307° West 417 480 36,000  Level Albuquerque Center
12:16AM 36.9322 -102.6772 308° West 416 479 36,000 -1,080 Level Albuquerque Center
12:17AM 37.0100 -102.8039 308° West 412 474 33,900 -2,100 Descending Albuquerque Center
12:18AM 37.0719 -102.9108 306° West 402 463 31,800 -1,920 Descending Albuquerque Center
12:19AM 37.1344 -103.0142 307° West 391 450 30,000 -900 Descending Albuquerque Center
12:20AM 37.2081 -103.1356 307° West 392 451 30,000  Level Albuquerque Center
12:21AM 37.2694 -103.2381 307° West 387 445 30,000  Level Albuquerque Center
12:22AM 37.3306 -103.3417 307° West 385 443 30,000  Level Albuquerque Center
12:23AM 37.3908 -103.4431 307° West 383 441 30,000  Level Denver Center
12:24AM 37.4617 -103.5628 307° West 385 443 30,000  Level Denver Center
12:25AM 37.5228 -103.6653 307° West 384 442 30,000  Level Denver Center
12:26AM 37.5836 -103.7711 306° West 390 449 30,000  Level Denver Center
12:27AM 37.6550 -103.8925 307° West 392 451 30,000  Level Denver Center
12:28AM 37.7156 -103.9975 306° West 392 451 30,000  Level Denver Center
12:29AM 37.7858 -104.1214 306° West 393 452 30,000  Level Denver Center
12:30AM 37.8469 -104.2283 306° West 394 453 30,000  Level Denver Center
12:31AM 37.9194 -104.3514 307° West 391 450 30,000  Level Denver Center
12:32AM 37.9811 -104.4589 306° West 393 452 30,000  Level Denver Center
12:33AM 38.0422 -104.5647 306° West 390 449 30,000  Level Denver Center
12:34AM 38.1131 -104.6861 307° West 385 443 30,000  Level Denver Center
12:35AM 38.1725 -104.7908 306° West 383 441 30,000  Level Denver Center
12:36AM 38.2319 -104.8956 306° West 382 440 30,000  Level Denver Center
12:38AM 38.3008 -105.0175 306° West 380 437 30,000  Level Denver Center
12:39AM 38.3597 -105.1233 305° West 381 438 30,000  Level Denver Center
12:40AM 38.4236 -105.2344 306° West 388 447 30,000  Level Denver Center
12:41AM 38.4869 -105.3483 305° West 392 451 30,000  Level Denver Center
12:42AM 38.5497 -105.4631 305° West 393 452 30,000  Level Denver Center
12:43AM 38.6150 -105.5797 306° West 401 461 30,000  Level Denver Center
12:44AM 38.6803 -105.7008 305° West 410 472 30,000  Level Denver Center
12:45AM 38.7467 -105.8189 306° West 408 470 30,000  Level Denver Center
12:46AM 38.8253 -105.9608 305° West 408 470 30,000  Level Denver Center
12:47AM 38.8906 -106.0811 305° West 410 472 30,000  Level Denver Center
12:48AM 38.9508 -106.1928 305° West 410 472 30,000  Level Denver Center
12:49AM 39.0256 -106.3294 305° West 416 479 30,000  Level Denver Center
12:50AM 39.0861 -106.4428 305° West 406 467 30,000  Level Denver Center
12:51AM 39.1481 -106.5564 305° West 404 465 30,000 1,080 Level Denver Center
12:52AM 39.2183 -106.6864 305° West 398 458 32,200 1,860 Climbing Denver Center
12:53AM 39.2761 -106.7942 305° West 384 442 33,800 840 Climbing Denver Center
12:54AM 39.3308 -106.8994 304° West 371 427 34,000 60 Climbing Denver Center
12:55AM 39.3981 -107.0247 305° West 376 433 34,000  Level Denver Center
12:56AM 39.4569 -107.1344 305° West 383 441 34,000  Level Denver Center
12:57AM 39.5128 -107.2428 304° West 379 436 34,000  Level Denver Center
12:58AM 39.5803 -107.3697 305° West 383 441 34,000  Level Denver Center
12:59AM 39.6372 -107.4792 304° West 383 441 34,000 600 Level Denver Center
01:00AM 39.7028 -107.6047 304° West 377 434 35,300 960 Climbing Denver Center
01:01AM 39.7603 -107.7114 305° West 375 432 36,000 300 Climbing Denver Center
01:02AM 39.8164 -107.8200 304° West 377 434 36,000  Level Denver Center
01:03AM 39.8794 -107.9461 303° West 374 430 36,000  Level Denver Center
01:04AM 39.9356 -108.0542 304° West 377 434 36,000  Level Denver Center
01:05AM 39.9906 -108.1622 304° West 376 433 36,000  Level Denver Center
01:06AM 40.0558 -108.2897 304° West 379 436 36,000  Level Denver Center
01:07AM 40.1106 -108.3983 303° West 377 434 36,000  Level Denver Center
01:07AM 40.1375 -108.4533 303° West 378 435 36,000  Level Salt Lake Center
01:08AM 40.2017 -108.5794 304° West 375 432 36,000  Level Salt Lake Center
01:09AM 40.2297 -108.6333 304° West 375 432 36,000  Level Denver Center
01:10AM 40.2839 -108.7394 304° West 370 426 36,000  Level Denver Center
01:11AM 40.3267 -108.8294 302° West 367 422 36,000  Level Denver Center
01:12AM 40.3711 -108.9178 303° West 365 420 36,000  Level Salt Lake Center
01:13AM 40.4231 -109.0228 303° West 361 415 36,000  Level Salt Lake Center
01:14AM 40.4753 -109.1267 303° West 358 412 36,000  Level Salt Lake Center
01:15AM 40.5369 -109.2508 303° West 364 419 36,000 240 Level Salt Lake Center
01:16AM 40.5894 -109.3603 302° West 368 423 36,500 660 Climbing Salt Lake Center
01:17AM 40.6531 -109.4878 303° West 373 429 37,400 720 Climbing Salt Lake Center
01:18AM 40.7078 -109.5992 303° West 378 435 38,000 240 Climbing Salt Lake Center
01:19AM 40.7628 -109.7114 303° West 381 438 38,000  Level Salt Lake Center
01:20AM 40.8275 -109.8444 303° West 385 443 38,000  Level Salt Lake Center
01:21AM 40.8853 -109.9644 303° West 384 442 38,000  Level Salt Lake Center
01:22AM 40.9381 -110.0747 302° West 372 428 38,000  Level Salt Lake Center
01:23AM 40.9911 -110.1836 303° West 368 423 38,000  Level Salt Lake Center
01:24AM 41.0531 -110.3111 303° West 368 423 38,000  Level Salt Lake Center
01:25AM 41.1042 -110.4200 302° West 365 420 38,000  Level Salt Lake Center
01:26AM 41.1572 -110.5308 302° West 370 426 38,000  Level Salt Lake Center
01:27AM 41.2175 -110.6594 302° West 368 423 38,000  Level Salt Lake Center
01:28AM 41.2694 -110.7722 302° West 372 428 38,000  Level Salt Lake Center
01:29AM 41.3231 -110.8856 302° West 377 434 38,000  Level Salt Lake Center
01:30AM 41.3833 -111.0142 302° West 379 436 38,000  Level Salt Lake Center
01:31AM 41.4389 -111.1353 301° West 384 442 38,000  Level Salt Lake Center
01:32AM 41.4958 -111.2556 302° West 387 445 38,000  Level Salt Lake Center
01:33AM 41.5522 -111.3775 302° West 388 447 38,000  Level Salt Lake Center
01:34AM 41.6075 -111.4989 301° West 386 444 38,000  Level Salt Lake Center
01:35AM 41.6611 -111.6183 301° West 380 437 38,000  Level Salt Lake Center
01:36AM 41.7169 -111.7372 302° West 380 437 38,000  Level Salt Lake Center
01:37AM 41.7711 -111.8572 301° West 379 436 38,000  Level Salt Lake Center
01:38AM 41.8244 -111.9761 301° West 376 433 38,000  Level Salt Lake Center
01:39AM 41.8775 -112.0950 301° West 374 430 38,000  Level Salt Lake Center
01:40AM 41.9414 -112.2353 302° West 370 426 38,000  Level Salt Lake Center
01:41AM 41.9947 -112.3525 302° West 369 425 38,000  Level Salt Lake Center
01:42AM 42.0481 -112.4703 301° West 370 426 38,000  Level Salt Lake Center
01:43AM 42.0994 -112.5889 300° West 369 425 38,000  Level Salt Lake Center
01:44AM 42.1522 -112.7078 301° West 371 427 38,000  Level Salt Lake Center
01:45AM 42.2056 -112.8258 301° West 372 428 38,000  Level Salt Lake Center
01:46AM 42.2575 -112.9450 301° West 371 427 38,000  Level Salt Lake Center
01:47AM 42.3103 -113.0656 301° West 372 428 38,000  Level Salt Lake Center
01:48AM 42.3622 -113.1856 300° West 372 428 38,000  Level Salt Lake Center
01:49AM 42.4142 -113.3056 300° West 371 427 38,000  Level Salt Lake Center
01:50AM 42.4664 -113.4253 301° West 369 425 38,000  Level Salt Lake Center
01:51AM 42.5181 -113.5458 300° West 371 427 38,000  Level Salt Lake Center
01:52AM 42.5686 -113.6672 300° West 372 428 38,000  Level Salt Lake Center
01:53AM 42.6200 -113.7894 300° West 373 429 38,000  Level Salt Lake Center
01:54AM 42.6703 -113.9150 299° West 381 438 38,000  Level Salt Lake Center
01:55AM 42.7208 -114.0353 300° West 372 428 38,000  Level Salt Lake Center
01:56AM 42.7828 -114.1808 300° West 371 427 38,000  Level Salt Lake Center
01:57AM 42.8336 -114.3025 300° West 371 427 38,000  Level Salt Lake Center
01:58AM 42.8842 -114.4247 299° West 372 428 38,000  Level Salt Lake Center
01:59AM 42.9325 -114.5322 302° West 371 427 38,000  Level Salt Lake Center
02:00AM 42.9839 -114.6544 300° West 371 427 38,000  Level Salt Lake Center
02:01AM 43.0344 -114.7764 300° West 369 425 38,000  Level Salt Lake Center
02:02AM 43.0956 -114.9258 299° West 376 433 38,000  Level Salt Lake Center
02:03AM 43.1467 -115.0500 299° West 375 432 38,000  Level Salt Lake Center
02:04AM 43.1969 -115.1753 299° West 375 432 38,000  Level Salt Lake Center
02:05AM 43.2464 -115.3000 299° West 373 429 38,000  Level Salt Lake Center
02:06AM 43.2975 -115.4258 299° West 376 433 38,000  Level Salt Lake Center
02:07AM 43.3472 -115.5522 298° West 376 433 38,000  Level Salt Lake Center
02:08AM 43.3969 -115.6783 299° West 376 433 38,000  Level Salt Lake Center
02:09AM 43.4472 -115.8064 298° West 379 436 38,000  Level Salt Lake Center
02:10AM 43.4964 -115.9336 298° West 377 434 38,000  Level Salt Lake Center
02:11AM 43.5467 -116.0608 299° West 377 434 38,000  Level Salt Lake Center
02:12AM 43.5958 -116.1875 298° West 374 430 38,000  Level Salt Lake Center
02:13AM 43.6456 -116.3144 298° West 375 432 38,000  Level Salt Lake Center
02:14AM 43.6953 -116.4417 298° West 375 432 38,000  Level Salt Lake Center
02:15AM 43.7439 -116.5689 298° West 374 430 38,000  Level Salt Lake Center
02:16AM 43.7928 -116.6964 298° West 374 430 38,000  Level Salt Lake Center
02:17AM 43.8422 -116.8231 298° West 373 429 38,000  Level Salt Lake Center
02:18AM 43.8908 -116.9494 298° West 373 429 38,000  Level Salt Lake Center
02:19AM 43.9403 -117.0758 299° West 372 428 38,000  Level Salt Lake Center
02:20AM 43.9875 -117.2025 297° West 371 427 38,000  Level Salt Lake Center
02:21AM 44.0364 -117.3292 298° West 372 428 38,000  Level Salt Lake Center
02:22AM 44.0842 -117.4558 298° West 370 426 38,000  Level Salt Lake Center
02:23AM 44.1317 -117.5831 298° West 371 427 38,000  Level Salt Lake Center
02:24AM 44.1778 -117.7125 296° West 372 428 38,000  Level Salt Lake Center
02:25AM 44.2242 -117.8406 297° West 371 427 38,000  Level Salt Lake Center
02:26AM 44.2697 -117.9694 296° West 370 426 38,000  Level Salt Lake Center
02:27AM 44.3192 -118.0964 299° West 372 428 38,000  Level Salt Lake Center
02:28AM 44.3675 -118.2264 298° West 376 433 38,000  Level Salt Lake Center
02:29AM 44.4147 -118.3558 297° West 375 432 38,000  Level Salt Lake Center
02:30AM 44.4667 -118.5017 297° West 379 436 38,000  Level Salt Lake Center
02:31AM 44.5142 -118.6322 297° West 378 435 38,000  Level Salt Lake Center
02:32AM 44.5614 -118.7633 297° West 378 435 38,000  Level Salt Lake Center
02:33AM 44.6075 -118.8942 296° West 376 433 38,000  Level Salt Lake Center
02:34AM 44.6542 -119.0258 297° West 377 434 38,000  Level Salt Lake Center
02:35AM 44.7000 -119.1578 296° West 377 434 38,000  Level Salt Lake Center
02:36AM 44.7442 -119.2883 296° West 373 429 38,000  Level Salt Lake Center
02:38AM 44.7906 -119.4206 296° West 377 434 38,000  Level Salt Lake Center
02:39AM 44.8361 -119.5525 296° West 375 432 38,000  Level Salt Lake Center
02:40AM 44.8814 -119.6853 296° West 376 433 38,000  Level Salt Lake Center
02:41AM 44.9267 -119.8150 296° West 372 428 38,000  Level Salt Lake Center
02:42AM 44.9975 -120.0186 296° West 374 430 38,000  Level Seattle Center
02:43AM 45.0394 -120.1442 295° West 374 430 38,000  Level Seattle Center
02:44AM 45.0839 -120.2761 296° West 372 428 38,000  Level Seattle Center
02:45AM 45.1281 -120.4094 295° West 374 430 38,000 -240 Level Seattle Center
02:46AM 45.1711 -120.5369 296° West 367 422 37,600 -1,500 Descending Seattle Center
02:47AM 45.2189 -120.6581 299° West 354 407 35,000 -2,700 Descending Seattle Center
02:48AM 45.2708 -120.7931 299° West 379 436 32,200 -2,880 Descending Seattle Center
02:49AM 45.3236 -120.9306 299° West 393 452 29,300 -2,880 Descending Seattle Center
02:50AM 45.3764 -121.0686 299° West 397 457 26,400 -2,880 Descending Seattle Center
02:51AM 45.4275 -121.2036 298° West 393 452 23,600 -2,700 Descending Seattle Center
02:52AM 45.4572 -121.3475 286° West 382 440 21,000 -2,760 Descending Seattle Center
02:52AM 45.4731 -121.4375 284° West 370 426 19,500 -2,700 Descending Seattle Center
02:53AM 45.4842 -121.4892 287° West 376 433 18,300 -3,000 Descending Seattle Center
02:53AM 45.4933 -121.5339 286° West 365 420 17,400 -2,940 Descending Seattle Center
02:54AM 45.5158 -121.6431 286° West 378 435 15,400 -2,280 Descending Seattle Center
02:54AM 45.5214 -121.6764 283° West 371 427 15,100 -1,020 Descending Seattle Center
02:55AM 45.5347 -121.7869 280° West 343 395 14,400 -900 Descending Seattle Center
02:55AM 45.5336 -121.8072 266° West 326 375 14,200 -1,140 Descending Seattle Center
02:56AM 45.5372 -121.9119 273° West 321 369 13,300 -1,140 Descending Seattle Center
02:56AM 45.5381 -121.9322 273° West 312 359 13,100 -1,140 Descending Seattle Center
02:57AM 45.5558 -122.0350 284° West 320 368 12,200 -1,200 Descending Seattle Center
02:57AM 45.5606 -122.0619 284° West 317 365 11,900 -1,140 Descending Seattle Center
02:58AM 45.5811 -122.1542 288° West 315 362 11,100 -1,140 Descending Seattle Center
02:58AM 45.5853 -122.1814 282° West 312 359 10,800 -1,020 Descending Seattle Center
02:59AM 45.6042 -122.2647 288° West 293 337 10,100 -1,020 Descending Seattle Center
02:59AM 45.6056 -122.2811 277° West 288 331 9,900 -1,500 Descending Seattle Center
03:00AM 45.6253 -122.3697 288° West 279 321 8,600 -1,500 Descending Seattle Center
03:00AM 45.6272 -122.3867 279° West 273 314 8,400 -840 Descending Seattle Center
03:01AM 45.6464 -122.4717 288° West 270 311 7,800 -840 Descending Seattle Center
03:01AM 45.6514 -122.4847 299° West 261 300 7,600 -1,320 Descending Seattle Center
03:02AM 45.6775 -122.5581 297° West 249 287 6,500 -1,260 Descending Seattle Center
03:02AM 45.6786 -122.5661 281° West 244 281 6,500 -1,200 Level Seattle Center
03:03AM 45.7044 -122.6478 294° West 248 285 5,300 -1,380 Descending Seattle Center
03:03AM 45.7050 -122.6544 277° West 245 282 5,100 -1,980 Descending Seattle Center
03:04AM 45.7317 -122.7319 296° West 236 272 3,300 -1,800 Descending Seattle Center
03:04AM 45.7372 -122.7494 294° West 230 265 3,100 -300 Descending Seattle Center
03:05AM 45.7236 -122.8003 249° West 188 216 3,000 -120 Descending Seattle Center
03:05AM 45.7156 -122.8047 201° Southwest 178 205 3,000  Level Seattle Center
03:06AM 45.6758 -122.8028 178° South 200 230 3,000 -120 Level Seattle Center
03:06AM 45.6706 -122.7953 135° Southeast 187 215 2,900 -540 Descending Seattle Center
03:07AM 45.6514 -122.7425 117° Southeast 178 205 2,500 -540 Descending Seattle Center
03:07AM 45.6472 -122.7336 124° Southeast 174 200 2,400 -900 Descending Seattle Center
03:08AM 45.6292 -122.6842 118° Southeast 169 194 1,600 -900 Descending Seattle Center
03:08AM 45.6253 -122.6778 131° Southeast 162 186 1,500 -840 Descending Seattle Center
03:09AM 45.6103 -122.6375 118° Southeast 137 158 800 -840 Descending Seattle Center
03:09AM 45.6069 -122.6297 121° Southeast 127 146 700 -720 Descending Seattle Center
03:10AM 45.5928 -122.5919 118° Southeast 130 150 100 -780 Descending Seattle Center